Decoded Metar for KVPC (CARTERSVILLE in GA, USA) (IATA:VPC) | Meteo·Mobile Aviation Weather
aviador You're here:

KVPC Decoded Metar

CARTERSVILLE in GA, USA
Report Time2018-12-10 14:53:00
UTC Time2018-12-10 14:59:42
Flight Rules ifr IFR
WindCalm
Visibility9999 m
Phenomena:N/A
Clouds:Overcast 008 Hf
Expected CloudBase > 400 ft AGL from Temp-Dew spread
Ceiling800 ft
Temp04°C (ISA -10)
Dew Point03°C (93% RH)
AAT2.5°C
QNH1020 hPa
Density Alt-558 ft
Elevation728 ft
Report Wrong Elevation
Raw Report
METAR KVPC 101453Z AUTO 00000KT 10SM OVC008 04/03 A3013 RMK AO2 CIG
006V011 SLP201 T00390028 53021=

Extra information for KVPC:More info

Metar Taf Metar & Taf Last 4 Metars F.Rules Stats Wind Profile Meteogram Temp Stats Airport Information Weather charts Add Link Nearby VenuesMetar ALERT Operation Metar Decoded Social comments

AIRNAV info for KVPC